Terminal Aerodrome Forecast
Issued by NWS Sioux Falls, SD

Home | Current Version | Previous Version | Graphics & Text | Print | Product List | Glossary On
Versions: 1 2 3 4 5 6 7 8 9 10 11 12 13 14 15 16 17 18 19 20 21
187
FTUS43 KFSD 222320
TAFFSD
TAF
KFSD 222320Z 2300/2324 17016G24KT P6SM VCTS BKN060CB
     FM230200 17009KT P6SM VCTS BKN060CB
     FM230600 17006KT P6SM BKN050
     FM231200 11005KT P6SM BKN040
     FM231700 14006KT P6SM SHRA BKN050
     FM232000 12006KT P6SM SHRA BKN035
     FM232100 02007KT P6SM SHRA BKN035=

USA.gov is the U.S. government's official web portal to all federal, state and local government web resources and services.